Time;durP1;ratioP1;P1;durP2;ratioP2;P2;SDS_P1;SDS_P2;PMS_P1;PMS_P2;Temp;Humidity;BMP_temperature;BMP_pressure;BME280_temperature;BME280_humidity;BME280_pressure;Samples;Min_cycle;Max_cycle;Signal;HPM_P1;HPM_P2
2022/08/10 00:00:47;;;;;;;7.60;5.20;;;;;;;13.47;75.64;101542.13;89515;1260;94906;-57
2022/08/10 00:03:06;;;;;;;10.00;5.40;;;;;;;13.46;75.71;101549.13;89504;1260;80398;-56
2022/08/10 00:05:24;;;;;;;9.30;5.60;;;;;;;13.45;75.77;101547.23;89498;1260;82502;-57
2022/08/10 00:07:33;;;;;;;7.90;5.90;;;;;;;13.48;75.77;101548.55;89548;1260;98922;-59
2022/08/10 00:09:44;;;;;;;8.60;5.50;;;;;;;13.48;75.81;101546.79;89592;1259;88216;-59
2022/08/10 00:11:54;;;;;;;6.70;5.50;;;;;;;13.47;75.87;101546.86;89569;1260;93455;-57
2022/08/10 00:14:11;;;;;;;10.20;5.80;;;;;;;13.45;75.82;101548.77;89537;1260;80192;-56
2022/08/10 00:16:22;;;;;;;8.10;5.70;;;;;;;13.41;75.83;101548.09;89534;1260;80464;-58
2022/08/10 00:18:32;;;;;;;6.90;5.80;;;;;;;13.40;75.73;101547.48;89535;1260;99284;-60
2022/08/10 00:20:44;;;;;;;8.20;5.40;;;;;;;13.38;75.84;101548.64;89574;1260;87920;-59
2022/08/10 00:22:57;;;;;;;6.40;5.10;;;;;;;13.36;75.78;101549.47;89511;1260;95033;-58
2022/08/10 00:25:14;;;;;;;8.90;5.40;;;;;;;13.35;75.87;101548.54;89493;1260;81272;-59
2022/08/10 00:27:27;;;;;;;7.30;5.30;;;;;;;13.34;75.95;101547.75;89532;1260;81850;-59
2022/08/10 00:29:37;;;;;;;8.30;6.00;;;;;;;13.32;76.04;101544.27;89531;1260;98388;-60
2022/08/10 00:31:47;;;;;;;7.20;5.40;;;;;;;13.36;76.03;101542.42;89493;1260;87626;-59
2022/08/10 00:33:59;;;;;;;6.80;5.70;;;;;;;13.37;76.11;101539.40;89494;1260;95109;-59
2022/08/10 00:36:10;;;;;;;7.50;5.40;;;;;;;13.35;76.13;101543.04;89538;1260;80085;-58
2022/08/10 00:38:24;;;;;;;5.90;5.30;;;;;;;13.32;76.17;101537.59;89422;1260;81926;-59
2022/08/10 00:40:41;;;;;;;6.90;5.70;;;;;;;13.32;76.13;101536.70;89382;1260;98372;-58
2022/08/10 00:42:52;;;;;;;6.80;5.00;;;;;;;13.32;76.12;101538.13;89073;1263;89112;-57
2022/08/10 00:45:06;;;;;;;8.80;5.40;;;;;;;13.32;76.23;101535.41;89423;1263;95059;-57
2022/08/10 00:47:17;;;;;;;8.90;5.80;;;;;;;13.33;76.30;101538.05;89423;1254;81235;-59
2022/08/10 00:49:28;;;;;;;7.20;5.40;;;;;;;13.34;76.41;101537.95;89434;1260;80249;-59
2022/08/10 00:51:37;;;;;;;7.90;5.60;;;;;;;13.33;76.40;101541.08;89464;1261;98164;-59
2022/08/10 00:53:49;;;;;;;8.10;5.00;;;;;;;13.32;76.48;101540.17;89396;1263;89286;-59
2022/08/10 00:55:59;;;;;;;6.70;5.70;;;;;;;13.30;76.50;101545.11;89455;1260;94813;-59
2022/08/10 00:58:09;;;;;;;8.40;6.30;;;;;;;13.26;76.56;101545.52;89465;1260;78925;-59
2022/08/10 01:00:22;;;;;;;7.20;5.70;;;;;;;13.23;76.66;101544.33;89428;1260;82299;-59
2022/08/10 01:02:36;;;;;;;6.50;5.20;;;;;;;13.19;76.64;101541.20;89442;1261;97448;-59
2022/08/10 01:04:48;;;;;;;6.50;5.20;;;;;;;13.15;76.68;101542.14;89138;1263;89197;-59
2022/08/10 01:07:19;;;;;;;7.00;5.00;;;;;;;13.13;76.81;101547.42;89457;1261;94788;-57
2022/08/10 01:09:41;;;;;;;8.20;5.20;;;;;;;13.15;76.83;101546.92;89393;1261;80556;-57
2022/08/10 01:12:02;;;;;;;8.80;6.30;;;;;;;13.14;76.94;101547.50;89402;1261;81910;-58
2022/08/10 01:14:22;;;;;;;9.10;6.00;;;;;;;13.14;76.94;101550.21;89397;1260;98871;-59
2022/08/10 01:16:39;;;;;;;7.50;6.00;;;;;;;13.12;77.00;101545.04;89390;1261;88635;-60
2022/08/10 01:18:57;;;;;;;10.80;7.30;;;;;;;13.12;77.08;101546.36;89355;1261;94784;-59
2022/08/10 01:21:40;;;;;;;8.20;6.10;;;;;;;13.10;76.98;101547.88;89359;1254;79734;-59
2022/08/10 01:24:26;;;;;;;7.50;5.90;;;;;;;13.05;77.01;101546.73;89356;1262;81677;-60
2022/08/10 01:27:16;;;;;;;6.20;5.50;;;;;;;13.02;77.06;101546.00;89372;1262;97443;-60
2022/08/10 01:30:06;;;;;;;10.80;6.40;;;;;;;13.01;77.14;101544.65;89380;1261;86788;-59
2022/08/10 01:32:26;;;;;;;9.10;5.70;;;;;;;12.98;77.25;101545.76;89359;1262;94313;-59
2022/08/10 01:34:50;;;;;;;6.20;5.30;;;;;;;12.96;77.28;101548.47;89357;1260;82281;-60
2022/08/10 01:37:07;;;;;;;;;;;;;;;12.95;77.31;101544.25;89389;1260;81773;-59
2022/08/10 01:39:26;;;;;;;9.00;6.80;;;;;;;12.91;77.47;101543.98;89395;1260;98955;-59
2022/08/10 01:41:47;;;;;;;7.80;7.00;;;;;;;12.89;77.58;101546.23;88993;1261;566971;-59
2022/08/10 01:44:10;;;;;;;7.60;6.30;;;;;;;12.89;77.63;101544.06;89436;1260;94239;-59
2022/08/10 01:46:25;;;;;;;8.50;6.30;;;;;;;12.88;77.65;101543.55;89412;1260;82352;-59
2022/08/10 01:48:44;;;;;;;8.30;6.50;;;;;;;12.87;77.57;101547.64;89469;1262;82997;-59
2022/08/10 01:51:01;;;;;;;10.00;6.60;;;;;;;12.84;77.64;101550.98;89480;1260;98361;-60
2022/08/10 01:53:16;;;;;;;7.70;5.70;;;;;;;12.81;77.65;101548.23;89512;1260;87377;-58
2022/08/10 01:55:28;;;;;;;7.40;5.50;;;;;;;12.80;77.75;101546.09;89527;1263;95261;-59
2022/08/10 01:57:40;;;;;;;8.60;5.80;;;;;;;12.79;77.76;101546.65;89515;1261;80791;-58
2022/08/10 01:59:49;;;;;;;8.30;6.90;;;;;;;12.79;77.78;101547.02;89512;1261;82498;-59
2022/08/10 02:02:06;;;;;;;10.60;6.60;;;;;;;12.82;77.76;101548.91;89507;1261;97602;-57
2022/08/10 02:04:23;;;;;;;10.30;6.80;;;;;;;12.81;77.78;101548.23;89489;1260;89329;-58
2022/08/10 02:06:37;;;;;;;9.70;6.30;;;;;;;12.79;77.80;101548.32;89494;1262;93903;-58
2022/08/10 02:08:49;;;;;;;8.30;6.20;;;;;;;12.76;77.94;101548.19;89457;1261;81272;-57
2022/08/10 02:11:03;;;;;;;6.80;5.60;;;;;;;12.72;77.89;101549.66;89509;1261;81500;-59
2022/08/10 02:13:16;;;;;;;9.70;5.80;;;;;;;12.68;77.88;101549.06;89459;1260;97992;-58
2022/08/10 02:15:32;;;;;;;7.90;6.00;;;;;;;12.67;77.96;101552.93;89415;1260;87351;-59
2022/08/10 02:17:49;;;;;;;7.40;5.10;;;;;;;12.65;78.08;101557.72;89439;1261;94664;-58
2022/08/10 02:20:04;;;;;;;6.70;5.10;;;;;;;12.65;78.04;101559.88;89074;1263;82099;-59
2022/08/10 02:22:19;;;;;;;7.30;5.70;;;;;;;12.63;78.18;101558.91;89091;1263;82857;-59
2022/08/10 02:24:33;;;;;;;7.40;5.90;;;;;;;12.64;78.26;101560.73;89508;1260;98590;-59
2022/08/10 02:26:47;;;;;;;10.00;6.40;;;;;;;12.67;78.32;101563.67;89508;1260;86258;-57
2022/08/10 02:28:56;;;;;;;;;;;;;;;12.65;78.34;101560.30;89473;1261;95171;-58
2022/08/10 02:31:11;;;;;;;11.10;6.80;;;;;;;12.61;78.26;101564.25;89530;1261;78193;-59
2022/08/10 02:33:20;;;;;;;;;;;;;;;12.53;78.40;101568.05;89546;1260;82606;-59
2022/08/10 02:35:36;;;;;;;8.30;5.50;;;;;;;12.48;78.41;101565.02;89515;1261;96996;-59
2022/08/10 02:37:53;;;;;;;6.70;5.40;;;;;;;12.45;78.35;101567.84;89518;1261;88170;-59
2022/08/10 02:40:05;;;;;;;7.00;4.80;;;;;;;12.43;78.41;101565.81;89511;1263;94032;-59
2022/08/10 02:42:25;;;;;;;7.90;5.00;;;;;;;12.42;78.36;101567.70;89493;1261;81663;-60
2022/08/10 02:44:50;;;;;;;6.50;4.70;;;;;;;12.42;78.38;101568.24;89528;1261;81605;-60
2022/08/10 02:47:15;;;;;;;8.20;4.80;;;;;;;12.42;78.43;101569.90;89457;1261;96905;-60
2022/08/10 02:49:37;;;;;;;5.50;4.90;;;;;;;12.40;78.50;101571.04;89473;1261;88180;-60
2022/08/10 02:51:55;;;;;;;5.30;4.60;;;;;;;12.37;78.51;101571.38;89465;1261;94504;-58
2022/08/10 02:54:13;;;;;;;8.10;5.40;;;;;;;12.36;78.53;101571.18;89480;1261;80229;-58
2022/08/10 02:56:32;;;;;;;6.80;5.30;;;;;;;12.33;78.56;101568.71;89491;1260;82826;-57
2022/08/10 02:58:52;;;;;;;7.00;5.10;;;;;;;12.30;78.61;101569.66;89436;1261;97813;-57
2022/08/10 03:01:12;;;;;;;7.30;5.10;;;;;;;12.28;78.59;101573.02;89473;1261;88354;-59
2022/08/10 03:03:26;;;;;;;7.30;4.40;;;;;;;12.26;78.59;101574.45;89437;1261;95092;-59
2022/08/10 03:05:40;;;;;;;7.50;4.50;;;;;;;12.26;78.64;101574.67;89450;1261;82440;-57
2022/08/10 03:07:57;;;;;;;8.20;4.80;;;;;;;12.24;78.75;101572.28;89490;1261;80772;-56
2022/08/10 03:10:18;;;;;;;9.90;5.40;;;;;;;12.27;78.74;101571.61;89450;1261;98303;-57
2022/08/10 03:12:30;;;;;;;8.60;5.60;;;;;;;12.29;78.79;101567.56;89476;1261;88552;-59
2022/08/10 03:14:40;;;;;;;11.50;5.30;;;;;;;12.35;78.80;101568.73;89468;1261;94408;-59
2022/08/10 03:16:55;;;;;;;11.50;5.40;;;;;;;12.37;78.78;101571.59;89469;1261;78787;-59
2022/08/10 03:19:09;;;;;;;11.30;5.30;;;;;;;12.38;78.83;101576.69;89550;1254;81005;-58
2022/08/10 03:21:21;;;;;;;13.00;5.70;;;;;;;12.40;78.85;101579.19;89477;1260;97404;-58
2022/08/10 03:23:32;;;;;;;8.60;4.60;;;;;;;12.41;78.85;101579.60;89477;1261;88183;-59
2022/08/10 03:25:42;;;;;;;10.90;5.10;;;;;;;12.42;78.92;101581.33;89512;1260;95912;-59
2022/08/10 03:27:53;;;;;;;8.30;5.00;;;;;;;12.45;78.91;101584.98;89470;1260;81643;-59
2022/08/10 03:30:04;;;;;;;7.90;4.80;;;;;;;12.48;79.02;101582.23;89145;1263;81830;-59
2022/08/10 03:32:22;;;;;;;12.40;5.20;;;;;;;12.54;79.06;101583.98;89455;1263;97285;-57
2022/08/10 03:34:31;;;;;;;8.00;4.30;;;;;;;12.56;79.09;101582.29;89454;1260;89604;-58
2022/08/10 03:36:42;;;;;;;6.00;4.50;;;;;;;12.60;79.10;101579.97;89467;1260;93579;-59
2022/08/10 03:38:56;;;;;;;11.40;5.30;;;;;;;12.64;79.12;101580.09;89448;1260;79966;-58
2022/08/10 03:41:11;;;;;;;9.40;5.20;;;;;;;12.71;79.15;101580.70;89443;1260;82994;-57
2022/08/10 03:43:26;;;;;;;9.60;4.80;;;;;;;12.76;79.09;101577.81;89446;1260;98098;-57
2022/08/10 03:45:40;;;;;;;11.20;4.90;;;;;;;12.80;79.11;101580.41;89428;1260;87483;-57
2022/08/10 03:47:54;;;;;;;10.70;4.80;;;;;;;12.82;79.04;101579.59;89433;1261;95166;-57
2022/08/10 03:50:09;;;;;;;10.50;5.60;;;;;;;12.88;79.06;101585.60;89411;1261;81018;-57
2022/08/10 03:52:21;;;;;;;11.60;5.80;;;;;;;12.97;78.97;101587.09;89423;1261;81046;-57
2022/08/10 03:54:31;;;;;;;11.10;5.30;;;;;;;13.05;79.15;101589.61;89441;1261;98864;-58
2022/08/10 03:56:44;;;;;;;11.70;4.80;;;;;;;13.50;79.20;101589.24;89408;1260;86627;-56
2022/08/10 03:58:59;;;;;;;14.00;5.60;;;;;;;14.56;79.08;101591.08;89387;1261;94083;-57
2022/08/10 04:01:10;;;;;;;13.00;5.20;;;;;;;15.53;78.22;101589.24;89423;1263;79670;-59
2022/08/10 04:03:22;;;;;;;10.80;5.70;;;;;;;16.35;77.73;101585.52;89483;1263;82916;-60
2022/08/10 04:05:32;;;;;;;10.60;5.30;;;;;;;17.15;76.84;101586.79;89450;1260;98983;-59
2022/08/10 04:07:44;;;;;;;10.80;4.90;;;;;;;17.80;75.94;101586.86;89462;1261;87520;-60
2022/08/10 04:09:52;;;;;;;12.10;5.30;;;;;;;18.62;75.00;101587.17;89432;1261;93678;-59
2022/08/10 04:12:04;;;;;;;10.10;4.90;;;;;;;19.29;74.02;101584.94;89082;1263;80387;-59
2022/08/10 04:14:13;;;;;;;12.80;5.60;;;;;;;19.07;73.24;101586.86;89439;1261;81782;-58
2022/08/10 04:16:25;;;;;;;7.80;4.30;;;;;;;18.31;73.42;101591.27;89422;1260;98216;-59
2022/08/10 04:18:35;;;;;;;12.80;5.20;;;;;;;17.77;73.45;101593.50;89420;1260;87310;-59
2022/08/10 04:20:53;;;;;;;13.40;5.80;;;;;;;17.40;73.22;101602.75;89448;1261;93822;-59
2022/08/10 04:23:09;;;;;;;22.30;6.50;;;;;;;17.15;73.10;101600.10;89077;1263;78761;-59
2022/08/10 04:25:21;;;;;;;12.20;5.30;;;;;;;16.93;73.17;101601.67;89467;1260;80287;-58
2022/08/10 04:27:34;;;;;;;23.30;6.10;;;;;;;16.76;73.29;101601.63;89419;1261;98267;-61
2022/08/10 04:29:44;;;;;;;17.80;5.70;;;;;;;16.69;73.57;101603.67;89399;1261;87640;-59
2022/08/10 04:31:57;;;;;;;17.40;5.50;;;;;;;16.61;73.85;101604.91;89412;1260;94078;-59
2022/08/10 04:34:08;;;;;;;28.90;6.30;;;;;;;16.61;73.85;101604.71;89432;1261;80520;-59
2022/08/10 04:36:22;;;;;;;19.00;5.80;;;;;;;16.66;73.93;101606.09;89439;1260;81778;-59
2022/08/10 04:38:33;;;;;;;20.00;7.40;;;;;;;16.68;74.23;101605.80;89394;1260;97832;-60
2022/08/10 04:40:46;;;;;;;19.00;7.20;;;;;;;16.68;74.48;101603.63;89426;1260;88177;-59
2022/08/10 04:42:58;;;;;;;14.80;5.90;;;;;;;16.74;74.51;101606.56;89454;1260;91832;-59
2022/08/10 04:45:13;;;;;;;13.70;5.00;;;;;;;16.88;74.49;101606.36;89432;1260;79810;-58
2022/08/10 04:47:25;;;;;;;11.80;4.50;;;;;;;17.21;74.93;101605.80;89437;1261;81650;-57
2022/08/10 04:49:35;;;;;;;21.90;6.30;;;;;;;18.72;74.76;101604.31;89437;1261;96983;-58
2022/08/10 04:51:47;;;;;;;17.30;5.10;;;;;;;20.51;72.98;101602.38;89488;1261;87837;-57
2022/08/10 04:54:01;;;;;;;20.20;5.30;;;;;;;22.10;71.01;101600.29;89459;1260;94033;-57
2022/08/10 04:56:14;;;;;;;28.80;6.90;;;;;;;23.56;69.50;101598.42;89464;1261;79378;-59
2022/08/10 04:58:26;;;;;;;12.40;4.80;;;;;;;24.60;68.12;101598.79;89446;1261;83218;-59
2022/08/10 05:00:35;;;;;;;9.60;4.30;;;;;;;25.47;66.82;101601.45;89454;1260;98534;-59
2022/08/10 05:02:46;;;;;;;8.70;3.90;;;;;;;26.28;65.34;101599.84;89085;1263;87667;-59
2022/08/10 05:04:56;;;;;;;15.10;5.90;;;;;;;27.10;63.73;101599.73;89444;1261;92741;-59
2022/08/10 05:07:08;;;;;;;21.60;5.50;;;;;;;27.75;61.21;101599.00;89444;1261;79825;-59
2022/08/10 05:09:18;;;;;;;26.70;6.20;;;;;;;28.06;58.97;101599.67;89118;1263;82354;-58
2022/08/10 05:11:28;;;;;;;25.30;6.20;;;;;;;28.47;57.98;101601.71;89448;1261;98173;-57
2022/08/10 05:13:38;;;;;;;28.60;6.60;;;;;;;29.06;56.59;101605.19;89422;1260;88049;-57
2022/08/10 05:15:50;;;;;;;27.80;6.50;;;;;;;29.49;54.56;101601.71;89428;1261;94528;-59
2022/08/10 05:18:03;;;;;;;33.30;8.10;;;;;;;29.87;52.88;101600.16;89382;1262;80238;-58
2022/08/10 05:20:17;;;;;;;40.90;9.10;;;;;;;30.15;51.78;101601.34;89430;1260;82308;-60
2022/08/10 05:22:27;;;;;;;25.20;6.50;;;;;;;30.29;50.98;101601.95;89440;1263;97947;-60
2022/08/10 05:24:38;;;;;;;43.60;9.00;;;;;;;30.53;50.06;101601.14;89416;1261;87577;-60
2022/08/10 05:26:55;;;;;;;33.90;7.30;;;;;;;30.51;49.41;101601.72;89398;1263;95251;-59
2022/08/10 05:29:04;;;;;;;21.80;6.20;;;;;;;30.12;47.82;101597.77;89401;1261;80866;-59
2022/08/10 05:31:14;;;;;;;25.60;6.70;;;;;;;30.04;47.59;101596.33;89442;1261;82789;-59
2022/08/10 05:33:26;;;;;;;21.10;5.40;;;;;;;30.48;47.48;101600.58;89410;1261;97034;-58
2022/08/10 05:35:38;;;;;;;19.50;5.00;;;;;;;30.69;47.11;101602.77;89415;1261;87339;-58
2022/08/10 05:37:50;;;;;;;21.30;6.30;;;;;;;30.94;46.49;101603.80;89428;1262;94417;-60
2022/08/10 05:40:01;;;;;;;23.40;5.20;;;;;;;31.41;46.10;101602.02;89474;1261;79717;-59
2022/08/10 05:42:10;;;;;;;23.60;6.10;;;;;;;31.94;45.25;101599.58;89489;1261;80692;-58
2022/08/10 05:44:25;;;;;;;31.10;6.60;;;;;;;32.60;44.12;101600.41;89462;1261;96308;-57
2022/08/10 05:46:43;;;;;;;44.20;8.10;;;;;;;32.88;43.57;101604.38;89460;1260;88487;-60
2022/08/10 05:48:55;;;;;;;25.60;7.00;;;;;;;33.03;42.87;101603.20;89444;1263;94238;-60
2022/08/10 05:51:04;;;;;;;33.10;7.20;;;;;;;33.05;42.38;101605.61;89454;1261;79201;-60
2022/08/10 05:53:20;;;;;;;32.10;6.40;;;;;;;33.17;41.89;101602.08;89440;1261;82327;-60
2022/08/10 05:55:31;;;;;;;20.10;5.70;;;;;;;33.15;41.36;101601.11;89432;1261;98830;-58
2022/08/10 05:57:44;;;;;;;30.80;7.00;;;;;;;33.40;40.82;101602.23;89424;1260;88081;-59
2022/08/10 06:00:02;;;;;;;34.90;7.80;;;;;;;33.92;40.43;101602.31;89420;1260;94724;-59
2022/08/10 06:02:13;;;;;;;37.90;8.40;;;;;;;34.31;40.19;101593.73;89110;1263;79946;-59
2022/08/10 06:04:29;;;;;;;34.70;7.40;;;;;;;34.27;40.21;101599.74;89440;1263;82091;-60
2022/08/10 06:06:41;;;;;;;28.60;5.10;;;;;;;34.19;39.46;101600.45;89416;1261;98217;-59
2022/08/10 06:08:53;;;;;;;20.10;4.70;;;;;;;34.08;39.33;101602.09;89423;1260;88508;-59
2022/08/10 06:11:08;;;;;;;29.30;7.20;;;;;;;34.00;39.35;101607.29;89438;1261;94962;-59
2022/08/10 06:15:48;;;;;;;10.80;3.50;;;;;;;34.61;37.91;101607.05;89427;1261;81380;-59
2022/08/10 06:18:01;;;;;;;16.80;4.70;;;;;;;35.02;37.26;101603.00;89464;1261;97472;-58
2022/08/10 06:20:14;;;;;;;5.40;2.80;;;;;;;35.27;37.02;101607.73;89432;1261;89253;-60
2022/08/10 06:22:28;;;;;;;6.60;3.40;;;;;;;35.61;36.71;101606.25;89446;1260;94054;-57
2022/08/10 06:24:42;;;;;;;8.50;3.10;;;;;;;36.02;36.20;101606.77;89193;1263;80091;-58
2022/08/10 06:26:51;;;;;;;4.40;3.00;;;;;;;36.32;35.69;101603.48;89455;1263;82409;-59
2022/08/10 06:29:08;;;;;;;11.70;4.30;;;;;;;36.74;35.38;101604.26;89495;1263;98149;-59
2022/08/10 06:31:22;;;;;;;7.80;3.10;;;;;;;36.82;35.11;101605.02;89477;1263;88096;-59
2022/08/10 06:33:39;;;;;;;10.60;5.10;;;;;;;37.13;34.74;101607.52;89447;1261;95192;-60
2022/08/10 06:35:52;;;;;;;14.40;3.30;;;;;;;37.27;34.15;101610.06;89508;1261;80045;-58
2022/08/10 06:38:07;;;;;;;5.70;2.60;;;;;;;36.97;34.17;101608.94;89131;1263;82021;-59
2022/08/10 06:40:19;;;;;;;6.40;2.20;;;;;;;36.73;34.08;101608.17;89485;1261;96488;-58
2022/08/10 06:42:35;;;;;;;7.70;2.70;;;;;;;36.81;33.96;101605.07;89494;1260;88134;-61
2022/08/10 06:44:53;;;;;;;3.10;2.00;;;;;;;37.09;33.39;101604.95;89462;1260;94292;-60
2022/08/10 06:47:14;;;;;;;3.30;2.20;;;;;;;37.50;32.93;101601.89;89459;1261;79652;-56
2022/08/10 06:49:27;;;;;;;2.60;2.20;;;;;;;37.38;32.45;101606.79;89474;1260;82973;-59
2022/08/10 06:51:36;;;;;;;;;;;;;;;37.45;32.43;101601.38;89483;1260;96472;-61
2022/08/10 06:53:53;;;;;;;3.40;2.10;;;;;;;37.49;31.99;101600.90;89450;1261;88903;-61
2022/08/10 06:56:12;;;;;;;3.60;2.10;;;;;;;37.56;31.93;101598.55;89530;1261;92491;-60
2022/08/10 06:58:28;;;;;;;2.40;1.90;;;;;;;37.46;31.72;101598.66;89467;1261;79228;-61
2022/08/10 07:00:41;;;;;;;2.80;1.80;;;;;;;37.17;31.82;101596.36;89500;1261;81974;-63
2022/08/10 07:03:03;;;;;;;2.10;1.90;;;;;;;37.55;31.88;101594.38;89501;1261;98165;-66
2022/08/10 07:05:20;;;;;;;3.40;2.00;;;;;;;37.59;31.46;101597.20;89469;1260;87210;-63
2022/08/10 07:07:37;;;;;;;4.70;2.40;;;;;;;37.22;31.64;101596.16;89449;1260;93539;-66
2022/08/10 07:09:51;;;;;;;3.50;2.10;;;;;;;37.18;31.50;101594.77;89455;1261;79961;-65
2022/08/10 07:12:03;;;;;;;2.40;1.80;;;;;;;37.11;31.36;101595.36;89514;1260;82332;-63
2022/08/10 07:14:17;;;;;;;2.50;1.80;;;;;;;37.32;30.98;101598.73;89507;1261;97934;-62
2022/08/10 07:16:32;;;;;;;2.10;1.40;;;;;;;37.35;30.61;101598.95;89513;1260;88414;-63
2022/08/10 07:18:44;;;;;;;2.50;1.80;;;;;;;36.98;30.74;101593.28;89491;1260;94881;-65
2022/08/10 07:20:55;;;;;;;3.80;2.20;;;;;;;37.25;30.19;101594.58;89520;1260;80719;-64
2022/08/10 07:23:11;;;;;;;2.90;1.70;;;;;;;37.26;30.27;101597.69;89504;1260;82000;-65
2022/08/10 07:25:32;;;;;;;2.10;1.80;;;;;;;36.69;30.06;101594.42;89531;1260;97837;-63
2022/08/10 07:27:47;;;;;;;3.10;2.10;;;;;;;36.60;30.35;101591.20;89077;1263;87870;-65
2022/08/10 07:29:57;;;;;;;3.10;1.70;;;;;;;37.01;30.35;101593.08;89446;1261;94463;-65
2022/08/10 07:32:09;;;;;;;3.60;1.90;;;;;;;36.78;30.33;101589.16;89458;1261;80818;-63
2022/08/10 07:34:22;;;;;;;4.40;2.20;;;;;;;36.57;30.20;101589.36;89469;1261;82140;-62
2022/08/10 07:36:35;;;;;;;2.30;1.70;;;;;;;36.44;30.12;101590.45;89473;1260;98064;-64
2022/08/10 07:38:46;;;;;;;2.40;1.80;;;;;;;35.84;30.14;101595.97;89439;1260;86746;-64
2022/08/10 07:41:00;;;;;;;4.10;2.00;;;;;;;34.11;30.53;101598.16;89448;1261;92489;-62
2022/08/10 07:43:11;;;;;;;3.10;1.80;;;;;;;32.51;31.73;101600.79;89433;1260;79588;-63
2022/08/10 07:45:28;;;;;;;2.70;1.60;;;;;;;32.60;32.88;101598.23;89478;1260;82531;-63
2022/08/10 07:47:51;;;;;;;3.50;1.70;;;;;;;32.24;33.03;101597.84;89467;1260;98621;-62
2022/08/10 07:50:06;;;;;;;2.70;1.30;;;;;;;32.43;33.05;101596.29;89446;1261;88887;-62
2022/08/10 07:52:17;;;;;;;3.70;1.70;;;;;;;32.59;33.36;101598.64;89423;1260;93306;-63
2022/08/10 07:54:31;;;;;;;3.70;1.90;;;;;;;33.32;33.00;101598.39;89495;1260;80950;-64
2022/08/10 07:56:42;;;;;;;3.70;2.20;;;;;;;33.60;32.04;101601.85;89487;1260;82356;-60
2022/08/10 07:59:02;;;;;;;3.30;1.70;;;;;;;32.84;32.63;101601.60;89518;1260;97966;-61
2022/08/10 08:01:16;;;;;;;3.60;1.90;;;;;;;33.29;33.11;101599.70;89468;1261;86864;-59
2022/08/10 08:03:31;;;;;;;11.00;3.30;;;;;;;34.16;32.09;101603.09;89456;1260;94457;-60
2022/08/10 08:05:40;;;;;;;17.10;3.70;;;;;;;34.13;31.43;101602.15;89420;1260;78223;-59
2022/08/10 08:07:52;;;;;;;15.80;3.90;;;;;;;33.61;32.10;101601.89;89488;1260;83189;-60
2022/08/10 08:10:03;;;;;;;12.40;3.20;;;;;;;34.22;32.22;101597.61;89445;1260;97912;-59
2022/08/10 08:12:16;;;;;;;19.40;4.40;;;;;;;34.71;31.17;101598.73;89469;1261;87565;-61
2022/08/10 08:14:29;;;;;;;13.10;3.60;;;;;;;33.77;31.53;101605.11;89401;1260;95190;-57
2022/08/10 08:16:48;;;;;;;18.20;4.80;;;;;;;32.91;32.29;101605.28;89457;1260;80124;-60
2022/08/10 08:19:04;;;;;;;12.30;3.50;;;;;;;32.12;33.06;101600.87;89462;1260;82876;-61
2022/08/10 08:21:16;;;;;;;10.50;2.90;;;;;;;31.43;33.38;101602.49;89483;1260;98781;-59
2022/08/10 08:23:28;;;;;;;9.70;2.40;;;;;;;30.96;34.18;101598.66;89077;1264;88878;-60
2022/08/10 08:25:46;;;;;;;19.60;4.10;;;;;;;30.27;34.62;101596.16;89413;1260;94807;-59
2022/08/10 08:28:00;;;;;;;13.40;3.30;;;;;;;29.89;35.20;101596.48;89433;1260;79739;-59
2022/08/10 08:30:12;;;;;;;13.50;2.90;;;;;;;29.95;36.21;101594.59;89444;1260;81694;-59
2022/08/10 08:32:23;;;;;;;4.40;1.80;;;;;;;31.42;36.15;101592.17;89492;1254;97077;-62
2022/08/10 08:34:36;;;;;;;2.50;1.70;;;;;;;32.63;34.71;101586.58;89491;1260;87196;-61
2022/08/10 08:36:50;;;;;;;4.90;1.80;;;;;;;33.42;34.39;101586.65;89449;1260;93729;-60
2022/08/10 08:38:58;;;;;;;8.50;2.50;;;;;;;33.90;33.45;101583.67;89412;1260;80388;-60
2022/08/10 08:41:44;;;;;;;5.00;2.50;;;;;;;34.36;32.87;101580.42;89462;1260;83163;-61
2022/08/10 08:44:09;;;;;;;6.50;2.10;;;;;;;33.91;32.32;101590.11;89476;1260;98978;-62
2022/08/10 08:47:01;;;;;;;10.20;2.40;;;;;;;33.91;32.67;101588.14;89509;1260;87547;-61
2022/08/10 08:49:41;;;;;;;7.80;2.20;;;;;;;33.70;32.71;101587.61;89467;1260;94261;-62
2022/08/10 08:52:12;;;;;;;2.60;1.80;;;;;;;33.23;32.07;101588.46;89422;1260;80038;-59
2022/08/10 08:54:38;;;;;;;2.30;1.70;;;;;;;32.86;32.81;101585.77;89472;1261;82085;-58
2022/08/10 08:57:03;;;;;;;5.70;1.90;;;;;;;32.26;32.85;101583.41;89428;1260;98742;-61
2022/08/10 08:59:31;;;;;;;3.20;1.70;;;;;;;31.31;33.14;101586.46;89442;1260;88483;-60
2022/08/10 09:02:04;;;;;;;4.00;1.60;;;;;;;30.68;33.95;101584.70;89455;1260;93235;-61
2022/08/10 09:04:48;;;;;;;3.40;1.70;;;;;;;31.26;34.45;101582.99;89421;1261;79937;-61
2022/08/10 09:07:31;;;;;;;1.80;1.40;;;;;;;32.23;34.06;101580.21;89134;1264;81364;-59
2022/08/10 09:10:03;;;;;;;1.70;1.40;;;;;;;32.84;33.64;101577.41;89415;1260;97795;-59
2022/08/10 09:12:33;;;;;;;2.50;1.90;;;;;;;33.38;33.34;101572.56;89465;1260;88370;-61
2022/08/10 09:14:56;;;;;;;5.10;1.60;;;;;;;33.58;32.85;101571.02;89424;1260;95016;-60
2022/08/10 09:17:28;;;;;;;2.20;1.50;;;;;;;33.77;32.26;101571.98;89451;1260;79268;-60
2022/08/10 09:19:50;;;;;;;2.20;1.50;;;;;;;33.21;31.63;101570.45;89442;1260;82175;-61
2022/08/10 09:22:13;;;;;;;7.50;1.70;;;;;;;32.96;31.72;101566.70;89473;1261;96618;-58
2022/08/10 09:24:34;;;;;;;7.10;1.80;;;;;;;32.54;31.28;101565.08;89491;1260;86366;-59
2022/08/10 09:26:52;;;;;;;6.80;2.00;;;;;;;32.15;31.34;101564.40;89138;1263;94091;-58
2022/08/10 09:29:03;;;;;;;2.40;1.20;;;;;;;31.78;31.53;101561.07;89508;1260;79918;-58
2022/08/10 09:31:18;;;;;;;10.40;3.10;;;;;;;31.69;31.71;101564.01;89479;1260;81729;-58
2022/08/10 09:33:46;;;;;;;5.50;2.30;;;;;;;31.04;31.84;101565.79;89456;1260;97498;-56
2022/08/10 09:36:04;;;;;;;2.10;1.30;;;;;;;30.63;32.80;101563.49;89474;1260;89168;-58
2022/08/10 09:38:34;;;;;;;2.80;1.20;;;;;;;30.13;33.46;101559.70;89482;1260;95615;-59
2022/08/10 09:40:57;;;;;;;2.20;1.30;;;;;;;29.95;33.49;101568.02;89135;1261;470705;-59
2022/08/10 09:43:20;;;;;;;2.00;0.90;;;;;;;29.52;33.81;101562.04;89492;1260;81017;-63
2022/08/10 09:45:40;;;;;;;3.80;1.20;;;;;;;29.07;34.11;101559.77;89451;1261;98250;-62
2022/08/10 09:48:06;;;;;;;3.40;1.30;;;;;;;29.17;34.72;101559.23;89461;1260;87771;-63
2022/08/10 09:50:25;;;;;;;2.90;1.10;;;;;;;29.24;34.28;101555.65;89457;1260;94443;-63
2022/08/10 09:52:50;;;;;;;2.50;1.30;;;;;;;29.12;34.68;101553.12;89404;1260;79716;-60
2022/08/10 09:55:14;;;;;;;1.80;1.10;;;;;;;29.00;35.01;101554.35;89459;1260;81251;-61
2022/08/10 09:57:39;;;;;;;3.60;1.20;;;;;;;29.15;34.84;101553.73;89447;1260;97105;-62
2022/08/10 09:59:58;;;;;;;2.60;1.60;;;;;;;29.17;34.69;101549.61;89481;1260;88914;-61
2022/08/10 10:02:21;;;;;;;4.10;1.50;;;;;;;28.94;34.74;101544.11;89426;1260;94771;-60
2022/08/10 10:04:43;;;;;;;3.50;1.70;;;;;;;28.28;34.98;101543.55;89455;1260;79593;-60
2022/08/10 10:07:04;;;;;;;3.60;1.40;;;;;;;28.01;35.97;101543.61;89456;1260;81783;-61
2022/08/10 10:09:28;;;;;;;3.10;1.60;;;;;;;28.04;36.61;101542.56;89477;1260;98828;-60
2022/08/10 10:11:55;;;;;;;2.80;1.70;;;;;;;28.34;36.22;101539.73;89508;1254;88136;-60
2022/08/10 10:14:20;;;;;;;3.60;1.60;;;;;;;28.64;36.23;101543.48;89484;1260;94462;-62
2022/08/10 10:16:59;;;;;;;4.50;1.90;;;;;;;28.66;36.09;101540.70;89480;1261;80545;-61
2022/08/10 10:19:24;;;;;;;5.70;1.60;;;;;;;28.30;36.53;101545.02;89479;1260;83190;-59
2022/08/10 10:21:50;;;;;;;3.10;1.50;;;;;;;27.98;36.86;101544.48;89494;1260;98053;-61
2022/08/10 10:24:20;;;;;;;4.70;1.50;;;;;;;27.67;36.67;101545.95;89486;1260;88796;-60
2022/08/10 10:26:44;;;;;;;2.90;1.20;;;;;;;27.31;36.63;101543.16;89433;1260;94779;-60
2022/08/10 10:29:09;;;;;;;;;;;;;;;27.34;37.09;101542.00;89093;1263;78757;-60
2022/08/10 10:31:30;;;;;;;3.70;1.70;;;;;;;27.07;37.48;101540.34;89485;1260;81510;-62
2022/08/10 10:33:54;;;;;;;2.80;1.50;;;;;;;26.93;38.01;101537.73;89420;1260;98558;-61
2022/08/10 10:36:07;;;;;;;2.60;1.30;;;;;;;26.70;38.14;101539.58;89470;1260;87709;-62